sensor_id;sensor_type;location;lat;lon;timestamp;pressure;altitude;pressure_sealevel;temperature;humidity
46506;BME280;32220;49.808;9.968;2023-02-12T09:30:35;101075.91;;;6.69;100.00
46506;BME280;32220;49.808;9.968;2023-02-12T09:33:04;101074.25;;;7.32;100.00
46506;BME280;32220;49.808;9.968;2023-02-12T09:35:33;101055.94;;;7.81;95.34
46506;BME280;32220;49.808;9.968;2023-02-12T09:38:01;101086.47;;;8.50;91.20
46506;BME280;32220;49.808;9.968;2023-02-12T09:40:34;101093.56;;;8.91;87.71
46506;BME280;32220;49.808;9.968;2023-02-12T09:43:09;101101.63;;;9.28;85.32
46506;BME280;32220;49.808;9.968;2023-02-12T09:45:50;101084.31;;;9.53;83.04
46506;BME280;32220;49.808;9.968;2023-02-12T09:48:37;101102.75;;;9.95;81.33
46506;BME280;32220;49.808;9.968;2023-02-12T09:51:09;101089.13;;;10.10;78.69
46506;BME280;32220;49.808;9.968;2023-02-12T09:53:39;101085.09;;;10.31;77.79
46506;BME280;32220;49.808;9.968;2023-02-12T09:56:12;101087.13;;;10.54;77.32
46506;BME280;32220;49.808;9.968;2023-02-12T09:58:44;101099.53;;;10.86;76.30
46506;BME280;32220;49.808;9.968;2023-02-12T10:01:16;101116.53;;;11.09;74.73
46506;BME280;32220;49.808;9.968;2023-02-12T10:03:46;101107.09;;;11.29;74.18
46506;BME280;32220;49.808;9.968;2023-02-12T10:06:18;101103.88;;;11.48;73.29
46506;BME280;32220;49.808;9.968;2023-02-12T10:08:57;101106.88;;;11.66;70.86
46506;BME280;32220;49.808;9.968;2023-02-12T10:11:42;101096.84;;;11.75;71.03
46506;BME280;32220;49.808;9.968;2023-02-12T10:14:30;101096.88;;;12.02;70.19
46506;BME280;32220;49.808;9.968;2023-02-12T10:17:09;101107.47;;;12.30;69.68
46506;BME280;32220;49.808;9.968;2023-02-12T10:19:59;101099.38;;;12.59;67.85
46506;BME280;32220;49.808;9.968;2023-02-12T10:22:37;101115.78;;;12.97;66.48
46506;BME280;32220;49.808;9.968;2023-02-12T10:25:17;101114.59;;;13.28;65.88
46506;BME280;32220;49.808;9.968;2023-02-12T10:27:52;101109.22;;;13.53;65.24
46506;BME280;32220;49.808;9.968;2023-02-12T10:30:23;101096.16;;;13.69;64.46
46506;BME280;32220;49.808;9.968;2023-02-12T10:32:59;101108.53;;;14.14;63.94
46506;BME280;32220;49.808;9.968;2023-02-12T10:35:31;101108.66;;;14.32;60.93
46506;BME280;32220;49.808;9.968;2023-02-12T10:38:02;101110.84;;;14.65;61.21
46506;BME280;32220;49.808;9.968;2023-02-12T10:40:32;101098.44;;;14.64;61.15
46506;BME280;32220;49.808;9.968;2023-02-12T10:43:03;101113.03;;;14.76;60.71
46506;BME280;32220;49.808;9.968;2023-02-12T10:45:32;101113.81;;;15.18;59.08
46506;BME280;32220;49.808;9.968;2023-02-12T10:48:07;101095.94;;;16.66;57.01
46506;BME280;32220;49.808;9.968;2023-02-12T10:50:47;101126.97;;;17.84;54.38
46506;BME280;32220;49.808;9.968;2023-02-12T10:53:20;101151.09;;;19.50;49.66
46506;BME280;32220;49.808;9.968;2023-02-12T10:55:48;101142.34;;;19.60;46.68
46506;BME280;32220;49.808;9.968;2023-02-12T10:58:19;101154.41;;;19.82;47.90
46506;BME280;32220;49.808;9.968;2023-02-12T11:00:55;101157.03;;;20.51;45.57
46506;BME280;32220;49.808;9.968;2023-02-12T11:03:29;101174.66;;;20.42;43.31
46506;BME280;32220;49.808;9.968;2023-02-12T11:06:12;101172.09;;;20.27;42.96
46506;BME280;32220;49.808;9.968;2023-02-12T11:08:41;101155.59;;;20.04;44.62
46506;BME280;32220;49.808;9.968;2023-02-12T11:11:11;101138.00;;;19.86;44.74
46506;BME280;32220;49.808;9.968;2023-02-12T11:13:43;101121.09;;;19.70;44.78
46506;BME280;32220;49.808;9.968;2023-02-12T11:16:14;101139.75;;;19.59;43.71
46506;BME280;32220;49.808;9.968;2023-02-12T11:18:58;101125.06;;;19.22;45.70
46506;BME280;32220;49.808;9.968;2023-02-12T11:21:26;101127.72;;;19.08;46.78
46506;BME280;32220;49.808;9.968;2023-02-12T11:23:54;101118.66;;;18.80;47.19
46506;BME280;32220;49.808;9.968;2023-02-12T11:26:25;101118.75;;;18.49;46.27
46506;BME280;32220;49.808;9.968;2023-02-12T11:28:55;101112.94;;;18.26;47.67
46506;BME280;32220;49.808;9.968;2023-02-12T11:31:24;101105.66;;;18.28;48.08
46506;BME280;32220;49.808;9.968;2023-02-12T11:34:13;101104.19;;;18.23;48.13
46506;BME280;32220;49.808;9.968;2023-02-12T11:36:42;101103.72;;;18.30;48.33
46506;BME280;32220;49.808;9.968;2023-02-12T11:39:18;101099.75;;;18.38;47.39
46506;BME280;32220;49.808;9.968;2023-02-12T11:41:50;101106.84;;;18.39;47.08
46506;BME280;32220;49.808;9.968;2023-02-12T11:44:20;101071.16;;;18.07;46.95
46506;BME280;32220;49.808;9.968;2023-02-12T11:46:50;101104.88;;;18.26;47.31
46506;BME280;32220;49.808;9.968;2023-02-12T11:49:23;101089.84;;;18.54;47.27
46506;BME280;32220;49.808;9.968;2023-02-12T11:51:51;101083.66;;;18.82;47.25
46506;BME280;32220;49.808;9.968;2023-02-12T11:54:22;101092.34;;;19.15;47.26
46506;BME280;32220;49.808;9.968;2023-02-12T11:56:52;101092.31;;;19.29;45.35
46506;BME280;32220;49.808;9.968;2023-02-12T11:59:29;101079.19;;;19.11;44.54
46506;BME280;32220;49.808;9.968;2023-02-12T12:02:02;101090.38;;;19.46;44.47
46506;BME280;32220;49.808;9.968;2023-02-12T12:04:33;101100.84;;;21.61;43.48
46506;BME280;32220;49.808;9.968;2023-02-12T12:07:08;101099.38;;;24.10;39.83
46506;BME280;32220;49.808;9.968;2023-02-12T12:09:42;101126.44;;;26.83;34.95
46506;BME280;32220;49.808;9.968;2023-02-12T12:12:16;101132.66;;;28.06;33.61
46506;BME280;32220;49.808;9.968;2023-02-12T12:14:49;101130.63;;;28.97;30.90
46506;BME280;32220;49.808;9.968;2023-02-12T12:17:39;101131.13;;;28.57;30.00
46506;BME280;32220;49.808;9.968;2023-02-12T12:20:30;101126.72;;;27.19;31.52
46506;BME280;32220;49.808;9.968;2023-02-12T12:23:02;101112.19;;;25.44;32.77
46506;BME280;32220;49.808;9.968;2023-02-12T12:25:37;101106.75;;;24.08;35.08
46506;BME280;32220;49.808;9.968;2023-02-12T12:28:20;101093.41;;;23.28;36.13
46506;BME280;32220;49.808;9.968;2023-02-12T12:31:00;101098.09;;;25.19;34.97
46506;BME280;32220;49.808;9.968;2023-02-12T12:33:36;101088.50;;;25.15;34.68
46506;BME280;32220;49.808;9.968;2023-02-12T12:36:39;101089.22;;;24.34;35.10
46506;BME280;32220;49.808;9.968;2023-02-12T12:39:15;101089.34;;;23.45;35.60
46506;BME280;32220;49.808;9.968;2023-02-12T12:42:13;101088.84;;;22.95;36.38
46506;BME280;32220;49.808;9.968;2023-02-12T12:44:59;101075.47;;;22.58;37.06
46506;BME280;32220;49.808;9.968;2023-02-12T12:47:38;101074.22;;;22.51;37.53
46506;BME280;32220;49.808;9.968;2023-02-12T12:50:30;101060.63;;;21.81;37.83
46506;BME280;32220;49.808;9.968;2023-02-12T12:53:14;101058.16;;;21.16;39.22
46506;BME280;32220;49.808;9.968;2023-02-12T12:56:06;101041.72;;;20.83;39.67
46506;BME280;32220;49.808;9.968;2023-02-12T12:58:50;101033.41;;;21.24;39.42
46506;BME280;32220;49.808;9.968;2023-02-12T13:01:36;101048.91;;;21.08;40.06
46506;BME280;32220;49.808;9.968;2023-02-12T13:04:30;101050.66;;;20.71;40.43
46506;BME280;32220;49.808;9.968;2023-02-12T13:07:13;101045.56;;;20.14;41.28
46506;BME280;32220;49.808;9.968;2023-02-12T13:10:01;101036.75;;;19.58;42.42
46506;BME280;32220;49.808;9.968;2023-02-12T13:12:44;101027.97;;;18.99;43.52
46506;BME280;32220;49.808;9.968;2023-02-12T13:15:20;101015.31;;;18.43;44.39
46506;BME280;32220;49.808;9.968;2023-02-12T13:17:58;101016.56;;;18.08;45.46
46506;BME280;32220;49.808;9.968;2023-02-12T13:20:35;100997.09;;;17.74;46.06
46506;BME280;32220;49.808;9.968;2023-02-12T13:23:13;101012.94;;;17.63;46.43
46506;BME280;32220;49.808;9.968;2023-02-12T13:25:48;101016.28;;;17.51;47.06
46506;BME280;32220;49.808;9.968;2023-02-12T13:28:26;100985.63;;;17.25;47.49
46506;BME280;32220;49.808;9.968;2023-02-12T13:30:58;101015.59;;;17.16;47.41
46506;BME280;32220;49.808;9.968;2023-02-12T13:33:34;101001.53;;;16.79;48.51
46506;BME280;32220;49.808;9.968;2023-02-12T13:36:05;101017.31;;;16.68;49.08
46506;BME280;32220;49.808;9.968;2023-02-12T13:38:37;100993.72;;;16.42;49.64
46506;BME280;32220;49.808;9.968;2023-02-12T13:41:09;101009.28;;;16.34;49.77
46506;BME280;32220;49.808;9.968;2023-02-12T13:43:45;101004.91;;;16.15;50.22
46506;BME280;32220;49.808;9.968;2023-02-12T13:46:24;100998.59;;;15.99;50.88
46506;BME280;32220;49.808;9.968;2023-02-12T13:49:04;100970.50;;;15.56;50.99
46506;BME280;32220;49.808;9.968;2023-02-12T13:51:42;101009.53;;;15.59;51.37
46506;BME280;32220;49.808;9.968;2023-02-12T13:54:20;101000.34;;;15.45;51.95
46506;BME280;32220;49.808;9.968;2023-02-12T13:56:55;101014.47;;;15.30;51.94
46506;BME280;32220;49.808;9.968;2023-02-12T13:59:51;101011.63;;;15.15;51.82
46506;BME280;32220;49.808;9.968;2023-02-12T14:02:46;101002.47;;;15.01;51.88
46506;BME280;32220;49.808;9.968;2023-02-12T14:05:26;100985.06;;;14.74;52.71
46506;BME280;32220;49.808;9.968;2023-02-12T14:07:57;101000.38;;;14.70;52.78
46506;BME280;32220;49.808;9.968;2023-02-12T14:10:28;101003.72;;;14.55;53.20
46506;BME280;32220;49.808;9.968;2023-02-12T14:13:12;100983.06;;;14.40;53.69
46506;BME280;32220;49.808;9.968;2023-02-12T14:15:43;100988.78;;;14.31;54.04
46506;BME280;32220;49.808;9.968;2023-02-12T14:18:27;100987.56;;;14.18;53.97
46506;BME280;32220;49.808;9.968;2023-02-12T14:27:25;100992.97;;;13.96;55.13
46506;BME280;32220;49.808;9.968;2023-02-12T14:35:39;100981.09;;;13.61;55.87
46506;BME280;32220;49.808;9.968;2023-02-12T14:41:29;100970.56;;;13.36;56.40
46506;BME280;32220;49.808;9.968;2023-02-12T14:44:43;100975.03;;;13.36;56.46
46506;BME280;32220;49.808;9.968;2023-02-12T14:50:02;100977.50;;;13.18;56.85
46506;BME280;32220;49.808;9.968;2023-02-12T14:52:38;100970.91;;;13.05;57.35
46506;BME280;32220;49.808;9.968;2023-02-12T14:55:18;100966.19;;;13.12;57.36
46506;BME280;32220;49.808;9.968;2023-02-12T15:06:37;100946.28;;;12.77;58.81
46506;BME280;32220;49.808;9.968;2023-02-12T15:09:09;100951.03;;;12.69;59.48
46506;BME280;32220;49.808;9.968;2023-02-12T15:11:42;100949.50;;;12.62;59.77
46506;BME280;32220;49.808;9.968;2023-02-12T15:14:15;100954.97;;;12.58;59.98
46506;BME280;32220;49.808;9.968;2023-02-12T15:16:52;100939.69;;;12.40;60.52
46506;BME280;32220;49.808;9.968;2023-02-12T15:19:33;100935.06;;;12.22;61.80
46506;BME280;32220;49.808;9.968;2023-02-12T15:22:16;100955.31;;;12.24;61.88
46506;BME280;32220;49.808;9.968;2023-02-12T15:24:45;100952.94;;;12.17;61.94
46506;BME280;32220;49.808;9.968;2023-02-12T15:27:14;100949.81;;;12.06;62.31
46506;BME280;32220;49.808;9.968;2023-02-12T15:29:44;100942.16;;;11.97;62.55
46506;BME280;32220;49.808;9.968;2023-02-12T15:32:18;100942.97;;;11.99;62.67
46506;BME280;32220;49.808;9.968;2023-02-12T15:34:49;100950.31;;;11.91;63.08
46506;BME280;32220;49.808;9.968;2023-02-12T15:37:22;100957.38;;;11.92;63.36
46506;BME280;32220;49.808;9.968;2023-02-12T15:39:53;100946.06;;;11.86;63.35
46506;BME280;32220;49.808;9.968;2023-02-12T15:42:24;100943.47;;;11.85;64.16
46506;BME280;32220;49.808;9.968;2023-02-12T15:45:01;100943.50;;;11.83;63.72
46506;BME280;32220;49.808;9.968;2023-02-12T15:47:29;100943.69;;;11.77;63.58
46506;BME280;32220;49.808;9.968;2023-02-12T15:49:58;100946.41;;;11.76;63.61
46506;BME280;32220;49.808;9.968;2023-02-12T15:52:31;100941.09;;;11.76;63.46
46506;BME280;32220;49.808;9.968;2023-02-12T15:55:01;100940.50;;;11.66;63.89
46506;BME280;32220;49.808;9.968;2023-02-12T15:57:30;100932.72;;;11.62;63.59
46506;BME280;32220;49.808;9.968;2023-02-12T16:00:04;100928.44;;;11.58;63.68
46506;BME280;32220;49.808;9.968;2023-02-12T16:02:39;100925.81;;;11.56;64.15
46506;BME280;32220;49.808;9.968;2023-02-12T16:05:13;100928.47;;;11.56;64.35
46506;BME280;32220;49.808;9.968;2023-02-12T16:07:45;100920.09;;;11.42;64.90
46506;BME280;32220;49.808;9.968;2023-02-12T16:10:13;100927.22;;;11.40;64.51
46506;BME280;32220;49.808;9.968;2023-02-12T16:12:42;100939.50;;;11.44;64.61
46506;BME280;32220;49.808;9.968;2023-02-12T16:15:23;100921.31;;;11.32;65.22
46506;BME280;32220;49.808;9.968;2023-02-12T16:17:51;100945.09;;;11.35;64.75
46506;BME280;32220;49.808;9.968;2023-02-12T16:20:23;100942.53;;;11.32;65.05
46506;BME280;32220;49.808;9.968;2023-02-12T16:22:54;100944.47;;;11.27;65.52
46506;BME280;32220;49.808;9.968;2023-02-12T16:25:25;100934.25;;;11.14;65.24
46506;BME280;32220;49.808;9.968;2023-02-12T16:27:57;100953.50;;;11.21;65.08
46506;BME280;32220;49.808;9.968;2023-02-12T16:30:28;100956.19;;;11.20;65.15
46506;BME280;32220;49.808;9.968;2023-02-12T16:32:57;100931.03;;;11.05;65.68
46506;BME280;32220;49.808;9.968;2023-02-12T16:35:29;100931.97;;;11.02;65.74
46506;BME280;32220;49.808;9.968;2023-02-12T16:38:01;100947.72;;;11.08;66.00
46506;BME280;32220;49.808;9.968;2023-02-12T16:40:33;100945.25;;;11.02;66.54
46506;BME280;32220;49.808;9.968;2023-02-12T16:43:04;100937.78;;;10.87;66.67
46506;BME280;32220;49.808;9.968;2023-02-12T16:45:43;100959.63;;;10.95;67.40
46506;BME280;32220;49.808;9.968;2023-02-12T16:48:17;100958.88;;;10.90;67.39
46506;BME280;32220;49.808;9.968;2023-02-12T16:50:50;100953.84;;;10.81;69.07
46506;BME280;32220;49.808;9.968;2023-02-12T16:53:35;100947.78;;;10.77;68.85
46506;BME280;32220;49.808;9.968;2023-02-12T16:56:15;100943.53;;;10.72;69.67
46506;BME280;32220;49.808;9.968;2023-02-12T16:58:45;100941.88;;;10.68;69.76
46506;BME280;32220;49.808;9.968;2023-02-12T17:01:20;100943.81;;;10.63;69.45
46506;BME280;32220;49.808;9.968;2023-02-12T17:03:48;100952.53;;;10.66;68.62
46506;BME280;32220;49.808;9.968;2023-02-12T17:06:18;100929.06;;;10.53;69.68
46506;BME280;32220;49.808;9.968;2023-02-12T17:08:47;100947.41;;;10.60;70.00
46506;BME280;32220;49.808;9.968;2023-02-12T17:11:15;100958.13;;;10.56;70.18
46506;BME280;32220;49.808;9.968;2023-02-12T17:13:44;100954.66;;;10.54;70.69
46506;BME280;32220;49.808;9.968;2023-02-12T17:16:12;100950.50;;;10.45;70.93
46506;BME280;32220;49.808;9.968;2023-02-12T17:18:40;100947.84;;;10.45;71.73
46506;BME280;32220;49.808;9.968;2023-02-12T17:21:16;100954.97;;;10.43;71.50
46506;BME280;32220;49.808;9.968;2023-02-12T17:23:49;100955.13;;;10.38;71.66
46506;BME280;32220;49.808;9.968;2023-02-12T17:26:19;100960.50;;;10.35;72.10
46506;BME280;32220;49.808;9.968;2023-02-12T17:28:47;100951.09;;;10.25;71.63
46506;BME280;32220;49.808;9.968;2023-02-12T17:31:14;100955.28;;;10.32;71.49
46506;BME280;32220;49.808;9.968;2023-02-12T17:33:42;100955.53;;;10.23;71.58
46506;BME280;32220;49.808;9.968;2023-02-12T17:36:10;100976.47;;;10.32;71.57
46506;BME280;32220;49.808;9.968;2023-02-12T17:38:38;100953.81;;;10.22;71.58
46506;BME280;32220;49.808;9.968;2023-02-12T17:41:09;100973.81;;;10.32;71.32
46506;BME280;32220;49.808;9.968;2023-02-12T17:43:37;100956.50;;;10.21;70.94
46506;BME280;32220;49.808;9.968;2023-02-12T17:46:08;100977.31;;;10.34;70.85
46506;BME280;32220;49.808;9.968;2023-02-12T17:48:36;100985.25;;;10.34;71.00
46506;BME280;32220;49.808;9.968;2023-02-12T17:51:05;100991.44;;;10.33;70.81
46506;BME280;32220;49.808;9.968;2023-02-12T17:53:33;100987.94;;;10.33;70.67
46506;BME280;32220;49.808;9.968;2023-02-12T17:56:00;100987.06;;;10.32;70.14
46506;BME280;32220;49.808;9.968;2023-02-12T17:58:30;100994.97;;;10.34;70.92
46506;BME280;32220;49.808;9.968;2023-02-12T18:01:03;100999.47;;;10.30;71.53
46506;BME280;32220;49.808;9.968;2023-02-12T18:03:30;100997.81;;;10.26;71.53
46506;BME280;32220;49.808;9.968;2023-02-12T18:05:58;101010.25;;;10.24;71.50
46506;BME280;32220;49.808;9.968;2023-02-12T18:08:27;100986.56;;;10.18;72.12
46506;BME280;32220;49.808;9.968;2023-02-12T18:10:54;101005.09;;;10.18;72.35
46506;BME280;32220;49.808;9.968;2023-02-12T18:13:23;101006.88;;;10.16;72.33
46506;BME280;32220;49.808;9.968;2023-02-12T18:15:52;101016.63;;;10.14;72.57
46506;BME280;32220;49.808;9.968;2023-02-12T18:18:20;101003.72;;;10.02;71.74
46506;BME280;32220;49.808;9.968;2023-02-12T18:20:48;101021.03;;;10.15;72.05
46506;BME280;32220;49.808;9.968;2023-02-12T18:23:16;101008.84;;;10.09;71.93
46506;BME280;32220;49.808;9.968;2023-02-12T18:25:44;101005.50;;;10.01;71.83
46506;BME280;32220;49.808;9.968;2023-02-12T18:28:12;100989.91;;;9.91;71.78
46506;BME280;32220;49.808;9.968;2023-02-12T18:30:40;101023.88;;;10.07;71.97
46506;BME280;32220;49.808;9.968;2023-02-12T18:33:11;101005.63;;;9.97;72.63
46506;BME280;32220;49.808;9.968;2023-02-12T18:35:39;101004.88;;;9.92;72.84
46506;BME280;32220;49.808;9.968;2023-02-12T18:38:07;101014.53;;;9.94;73.66
46506;BME280;32220;49.808;9.968;2023-02-12T18:40:38;101007.63;;;9.89;73.58
46506;BME280;32220;49.808;9.968;2023-02-12T18:43:06;101013.81;;;9.88;73.87
46506;BME280;32220;49.808;9.968;2023-02-12T18:45:34;101010.38;;;9.84;74.42
46506;BME280;32220;49.808;9.968;2023-02-12T18:48:02;100994.72;;;9.75;74.04
46506;BME280;32220;49.808;9.968;2023-02-12T18:50:35;100955.69;;;9.49;73.08
46506;BME280;32220;49.808;9.968;2023-02-12T18:53:03;101007.88;;;9.78;73.97
46506;BME280;32220;49.808;9.968;2023-02-12T18:55:32;100991.53;;;9.62;74.31
46506;BME280;32220;49.808;9.968;2023-02-12T18:57:59;101009.00;;;9.68;74.61
46506;BME280;32220;49.808;9.968;2023-02-12T19:00:27;101008.19;;;9.64;74.71
46506;BME280;32220;49.808;9.968;2023-02-12T19:02:55;101010.94;;;9.61;74.58
46506;BME280;32220;49.808;9.968;2023-02-12T19:05:23;101003.13;;;9.55;75.09
46506;BME280;32220;49.808;9.968;2023-02-12T19:07:52;100999.75;;;9.50;75.30
46506;BME280;32220;49.808;9.968;2023-02-12T19:10:20;100987.72;;;9.37;75.87
46506;BME280;32220;49.808;9.968;2023-02-12T19:12:48;100994.81;;;9.35;75.74
46506;BME280;32220;49.808;9.968;2023-02-12T19:15:16;100983.03;;;9.11;75.60
46506;BME280;32220;49.808;9.968;2023-02-12T19:17:44;101007.53;;;9.18;75.46
46506;BME280;32220;49.808;9.968;2023-02-12T19:20:12;100995.44;;;9.08;75.52
46506;BME280;32220;49.808;9.968;2023-02-12T19:22:41;100981.66;;;8.93;75.44
46506;BME280;32220;49.808;9.968;2023-02-12T19:25:10;101005.31;;;8.99;75.94
46506;BME280;32220;49.808;9.968;2023-02-12T19:27:38;101000.16;;;8.93;75.72
46506;BME280;32220;49.808;9.968;2023-02-12T19:30:07;100995.06;;;8.84;76.07
46506;BME280;32220;49.808;9.968;2023-02-12T19:32:35;100991.88;;;8.69;76.73
46506;BME280;32220;49.808;9.968;2023-02-12T19:35:03;100999.25;;;8.53;76.81
46506;BME280;32220;49.808;9.968;2023-02-12T19:37:31;100986.34;;;8.38;76.78
46506;BME280;32220;49.808;9.968;2023-02-12T19:39:59;101000.41;;;8.40;76.22
46506;BME280;32220;49.808;9.968;2023-02-12T19:42:29;100984.88;;;8.21;76.32
46506;BME280;32220;49.808;9.968;2023-02-12T19:44:56;101002.41;;;8.25;75.99
46506;BME280;32220;49.808;9.968;2023-02-12T19:47:24;101011.31;;;8.18;75.81
46506;BME280;32220;49.808;9.968;2023-02-12T19:49:52;100997.44;;;8.07;76.25
46506;BME280;32220;49.808;9.968;2023-02-12T19:52:20;100997.63;;;7.98;76.75
46506;BME280;32220;49.808;9.968;2023-02-12T19:54:48;100990.84;;;7.83;77.56
46506;BME280;32220;49.808;9.968;2023-02-12T19:57:16;100996.25;;;7.76;77.31
46506;BME280;32220;49.808;9.968;2023-02-12T19:59:45;100990.28;;;7.65;77.14
46506;BME280;32220;49.808;9.968;2023-02-12T20:02:13;101010.41;;;7.70;77.02
46506;BME280;32220;49.808;9.968;2023-02-12T20:04:42;101007.78;;;7.69;76.97
46506;BME280;32220;49.808;9.968;2023-02-12T20:07:10;101004.22;;;7.71;76.61
46506;BME280;32220;49.808;9.968;2023-02-12T20:09:37;100982.44;;;7.60;77.20
46506;BME280;32220;49.808;9.968;2023-02-12T20:12:06;101003.34;;;7.71;76.98
46506;BME280;32220;49.808;9.968;2023-02-12T20:14:34;100998.13;;;7.68;77.11
46506;BME280;32220;49.808;9.968;2023-02-12T20:17:03;101005.13;;;7.69;76.92
46506;BME280;32220;49.808;9.968;2023-02-12T20:19:32;101007.00;;;7.64;76.36
46506;BME280;32220;49.808;9.968;2023-02-12T20:22:00;101014.09;;;7.58;76.35
46506;BME280;32220;49.808;9.968;2023-02-12T20:24:31;101017.75;;;7.51;76.61
46506;BME280;32220;49.808;9.968;2023-02-12T20:27:01;101012.63;;;7.41;76.84
46506;BME280;32220;49.808;9.968;2023-02-12T20:29:29;101024.09;;;7.38;77.36
46506;BME280;32220;49.808;9.968;2023-02-12T20:31:57;101025.00;;;7.36;77.58
46506;BME280;32220;49.808;9.968;2023-02-12T20:34:27;101010.31;;;7.18;77.40
46506;BME280;32220;49.808;9.968;2023-02-12T20:36:55;101027.84;;;7.20;77.21
46506;BME280;32220;49.808;9.968;2023-02-12T20:39:23;101031.50;;;7.10;77.06
46506;BME280;32220;49.808;9.968;2023-02-12T20:41:51;101044.84;;;7.00;77.42
46506;BME280;32220;49.808;9.968;2023-02-12T20:44:20;101005.69;;;6.71;77.27
46506;BME280;32220;49.808;9.968;2023-02-12T20:46:49;101021.50;;;6.68;77.48
46506;BME280;32220;49.808;9.968;2023-02-12T20:49:18;101039.03;;;6.72;77.25
46506;BME280;32220;49.808;9.968;2023-02-12T20:51:48;101032.97;;;6.65;77.74
46506;BME280;32220;49.808;9.968;2023-02-12T20:54:16;101037.41;;;6.62;77.34
46506;BME280;32220;49.808;9.968;2023-02-12T20:56:44;101023.53;;;6.46;77.40
46506;BME280;32220;49.808;9.968;2023-02-12T20:59:12;101041.03;;;6.53;77.41
46506;BME280;32220;49.808;9.968;2023-02-12T21:01:40;101011.47;;;6.27;77.57
46506;BME280;32220;49.808;9.968;2023-02-12T21:04:11;101039.41;;;6.41;77.60
46506;BME280;32220;49.808;9.968;2023-02-12T21:06:40;101036.78;;;6.37;77.57
46506;BME280;32220;49.808;9.968;2023-02-12T21:09:11;101042.09;;;6.34;77.94
46506;BME280;32220;49.808;9.968;2023-02-12T21:11:41;101039.53;;;6.29;77.56
46506;BME280;32220;49.808;9.968;2023-02-12T21:14:11;101036.94;;;6.25;77.70
46506;BME280;32220;49.808;9.968;2023-02-12T21:16:41;101022.16;;;6.08;77.92
46506;BME280;32220;49.808;9.968;2023-02-12T21:19:10;101036.19;;;6.10;78.56
46506;BME280;32220;49.808;9.968;2023-02-12T21:21:40;101026.66;;;5.96;79.23
46506;BME280;32220;49.808;9.968;2023-02-12T21:24:13;101021.47;;;5.85;79.70
46506;BME280;32220;49.808;9.968;2023-02-12T21:26:42;101038.16;;;5.89;80.10
46506;BME280;32220;49.808;9.968;2023-02-12T21:29:12;101026.81;;;5.79;80.67
46506;BME280;32220;49.808;9.968;2023-02-12T21:31:42;101032.06;;;5.79;80.59
46506;BME280;32220;49.808;9.968;2023-02-12T21:34:12;101028.56;;;5.77;81.46
46506;BME280;32220;49.808;9.968;2023-02-12T21:36:42;101022.44;;;5.76;82.87
46506;BME280;32220;49.808;9.968;2023-02-12T21:39:14;100998.03;;;5.59;84.37
46506;BME280;32220;49.808;9.968;2023-02-12T21:41:42;101006.78;;;5.58;84.47
46506;BME280;32220;49.808;9.968;2023-02-12T21:44:12;101018.16;;;5.65;85.47
46506;BME280;32220;49.808;9.968;2023-02-12T21:46:40;101022.56;;;5.60;86.15
46506;BME280;32220;49.808;9.968;2023-02-12T21:49:10;101029.63;;;5.55;85.87
46506;BME280;32220;49.808;9.968;2023-02-12T21:51:40;101041.03;;;5.51;85.49
46506;BME280;32220;49.808;9.968;2023-02-12T21:54:12;101036.69;;;5.45;84.50
46506;BME280;32220;49.808;9.968;2023-02-12T21:56:43;101037.63;;;5.36;84.07
46506;BME280;32220;49.808;9.968;2023-02-12T21:59:12;101040.25;;;5.33;84.12
46506;BME280;32220;49.808;9.968;2023-02-12T22:01:41;101032.44;;;5.24;83.97
46506;BME280;32220;49.808;9.968;2023-02-12T22:04:10;101031.56;;;5.27;83.74
46506;BME280;32220;49.808;9.968;2023-02-12T22:06:41;101021.94;;;5.27;83.51
46506;BME280;32220;49.808;9.968;2023-02-12T22:09:14;101040.16;;;5.49;83.16
46506;BME280;32220;49.808;9.968;2023-02-12T22:11:42;101042.72;;;5.61;82.97
46506;BME280;32220;49.808;9.968;2023-02-12T22:14:14;101041.75;;;5.71;82.33
46506;BME280;32220;49.808;9.968;2023-02-12T22:16:42;101039.06;;;5.80;82.38
46506;BME280;32220;49.808;9.968;2023-02-12T22:19:10;101046.91;;;5.91;82.09
46506;BME280;32220;49.808;9.968;2023-02-12T22:21:39;101050.31;;;6.00;81.78
46506;BME280;32220;49.808;9.968;2023-02-12T22:24:10;101051.09;;;6.08;81.59
46506;BME280;32220;49.808;9.968;2023-02-12T22:26:40;101047.53;;;6.17;81.81
46506;BME280;32220;49.808;9.968;2023-02-12T22:29:09;101039.69;;;6.12;81.29
46506;BME280;32220;49.808;9.968;2023-02-12T22:31:39;101050.88;;;6.31;81.05
46506;BME280;32220;49.808;9.968;2023-02-12T22:34:10;101054.34;;;6.35;81.04
46506;BME280;32220;49.808;9.968;2023-02-12T22:36:39;101030.75;;;6.30;81.16
46506;BME280;32220;49.808;9.968;2023-02-12T22:39:08;101029.78;;;6.37;80.89
46506;BME280;32220;49.808;9.968;2023-02-12T22:41:38;101040.22;;;6.45;80.52
46506;BME280;32220;49.808;9.968;2023-02-12T22:44:10;101035.75;;;6.55;80.53
46506;BME280;32220;49.808;9.968;2023-02-12T22:46:39;101045.25;;;6.66;81.47
46506;BME280;32220;49.808;9.968;2023-02-12T22:49:07;101041.69;;;6.70;81.20
46506;BME280;32220;49.808;9.968;2023-02-12T22:51:35;101026.88;;;6.62;81.79
46506;BME280;32220;49.808;9.968;2023-02-12T22:54:05;101045.13;;;6.78;81.83
46506;BME280;32220;49.808;9.968;2023-02-12T22:56:33;101029.41;;;6.69;82.60
46506;BME280;32220;49.808;9.968;2023-02-12T22:59:01;101011.81;;;6.71;82.78
46506;BME280;32220;49.808;9.968;2023-02-12T23:01:30;101028.34;;;6.82;82.85
46506;BME280;32220;49.808;9.968;2023-02-12T23:03:58;101025.78;;;6.79;83.52
46506;BME280;32220;49.808;9.968;2023-02-12T23:06:28;101020.47;;;6.81;82.79
46506;BME280;32220;49.808;9.968;2023-02-12T23:08:58;101045.75;;;6.96;82.98
46506;BME280;32220;49.808;9.968;2023-02-12T23:11:27;101032.69;;;6.90;82.99
46506;BME280;32220;49.808;9.968;2023-02-12T23:13:56;101050.09;;;7.00;83.09
46506;BME280;32220;49.808;9.968;2023-02-12T23:16:25;101044.84;;;7.00;83.40
46506;BME280;32220;49.808;9.968;2023-02-12T23:18:55;101042.22;;;6.98;83.43